Time;durP1;ratioP1;P1;durP2;ratioP2;P2;SDS_P1;SDS_P2;PMS_P1;PMS_P2;Temp;Humidity;BMP_temperature;BMP_pressure;BME280_temperature;BME280_humidity;BME280_pressure;Samples;Min_cycle;Max_cycle;Signal;HPM_P1;HPM_P2
2023/02/19 00:01:34;;;;;;;15.30;6.00;;;9.00;99.90;;;-148.53;100.00;63986.66;5009300;28;20375;-79
2023/02/19 00:04:21;;;;;;;13.02;5.80;;;9.00;99.90;;;-148.53;100.00;63986.66;5007982;28;20033;-80
2023/02/19 00:06:48;;;;;;;15.10;5.88;;;9.00;99.90;;;-148.53;100.00;63986.66;5009013;28;20500;-79
2023/02/19 00:09:18;;;;;;;14.48;5.70;;;9.00;99.90;;;-148.53;100.00;63986.66;5011925;28;20046;-79
2023/02/19 00:11:43;;;;;;;14.30;6.40;;;9.10;99.90;;;-148.53;100.00;63986.66;5009906;28;20026;-80
2023/02/19 00:14:14;;;;;;;11.63;5.97;;;9.10;99.90;;;-148.53;100.00;63986.66;5008421;28;20037;-79
2023/02/19 00:16:40;;;;;;;12.52;5.97;;;9.10;99.90;;;-148.53;100.00;63986.66;5000122;28;20096;-79
2023/02/19 00:19:12;;;;;;;12.82;5.63;;;9.10;99.90;;;-148.53;100.00;63986.66;5002165;28;20117;-80
2023/02/19 00:21:38;;;;;;;15.35;5.97;;;9.10;99.90;;;-148.53;100.00;63986.66;5008450;28;20202;-79
2023/02/19 00:24:06;;;;;;;15.57;6.15;;;9.10;99.90;;;-148.53;100.00;63986.66;5005779;28;20124;-79
2023/02/19 00:26:32;;;;;;;;;;;9.10;99.90;;;-148.53;100.00;63986.66;5008300;28;20030;-80
2023/02/19 00:29:00;;;;;;;14.20;5.22;;;9.10;99.90;;;-148.53;100.00;63986.66;4994125;28;19917;-79
2023/02/19 00:31:30;;;;;;;12.48;5.43;;;9.10;99.90;;;-148.53;100.00;63986.66;5010859;28;20037;-79
2023/02/19 00:34:02;;;;;;;11.90;5.32;;;9.10;99.90;;;-148.53;100.00;63986.66;5002572;28;20033;-79
2023/02/19 00:36:30;;;;;;;10.75;5.15;;;9.10;99.90;;;-148.53;100.00;63986.66;5004537;28;20046;-78
2023/02/19 00:38:56;;;;;;;10.90;5.70;;;9.00;99.90;;;-148.53;100.00;63986.66;5002142;28;20091;-79
2023/02/19 00:41:23;;;;;;;12.10;6.30;;;9.00;99.90;;;-148.53;100.00;63986.66;5005254;28;20845;-78
2023/02/19 00:44:02;;;;;;;12.05;5.85;;;9.00;99.90;;;-148.53;100.00;63986.66;5006070;28;20125;-79
2023/02/19 00:46:36;;;;;;;10.07;5.30;;;9.10;99.90;;;-148.53;100.00;63986.66;5006560;28;20045;-79
2023/02/19 00:49:03;;;;;;;14.57;6.55;;;9.10;99.90;;;-148.53;100.00;63986.66;5006246;28;20037;-79
2023/02/19 00:51:33;;;;;;;14.68;6.72;;;9.10;99.90;;;-148.53;100.00;63986.66;5015078;28;20034;-78
2023/02/19 00:54:00;;;;;;;13.40;6.35;;;9.10;99.90;;;-148.53;100.00;63986.66;5002659;28;20041;-78
2023/02/19 00:56:26;;;;;;;14.50;7.25;;;9.00;99.90;;;-148.53;100.00;63986.66;5011785;28;20081;-78
2023/02/19 00:58:52;;;;;;;13.35;7.13;;;8.80;99.90;;;-148.53;100.00;63986.66;5018993;28;20104;-78
2023/02/19 01:01:19;;;;;;;15.75;7.05;;;8.70;99.90;;;-148.53;100.00;63986.66;5019007;28;20026;-77
2023/02/19 01:03:46;;;;;;;13.30;7.27;;;8.60;99.90;;;-148.53;100.00;63986.66;5022558;28;20041;-78
2023/02/19 01:06:16;;;;;;;14.68;6.55;;;8.60;99.90;;;-148.53;100.00;63986.66;5005150;28;20046;-78
2023/02/19 01:08:43;;;;;;;14.23;6.75;;;8.50;99.90;;;-148.53;100.00;63986.66;5002483;28;20029;-77
2023/02/19 01:11:09;;;;;;;19.42;7.53;;;8.50;99.90;;;-148.53;100.00;63986.66;5004549;28;20033;-78
2023/02/19 01:13:36;;;;;;;13.18;7.45;;;8.40;99.90;;;-148.53;100.00;63986.66;5006149;28;20021;-78
2023/02/19 01:16:06;;;;;;;15.85;7.95;;;8.40;99.90;;;-148.53;100.00;63986.66;5022523;28;20046;-77
2023/02/19 01:18:34;;;;;;;17.25;8.23;;;8.30;99.90;;;-148.53;100.00;63986.66;4999354;28;20038;-78
2023/02/19 01:21:06;;;;;;;16.27;8.07;;;8.30;99.90;;;-148.53;100.00;63986.66;5003086;28;20057;-78
2023/02/19 01:23:32;;;;;;;20.70;8.68;;;8.20;99.90;;;-148.53;100.00;63986.66;5006097;28;20041;-77
2023/02/19 01:25:57;;;;;;;21.17;9.32;;;8.20;99.90;;;-148.53;100.00;63986.66;4999995;28;20486;-78
2023/02/19 01:28:23;;;;;;;19.85;9.65;;;8.20;99.90;;;-148.53;100.00;63986.66;5017162;28;20034;-78
2023/02/19 01:30:49;;;;;;;17.65;9.25;;;8.20;99.90;;;-148.53;100.00;63986.66;5009913;28;20049;-77
2023/02/19 01:33:14;;;;;;;21.85;10.45;;;8.20;99.90;;;-148.53;100.00;63986.66;5003075;28;20034;-77
2023/02/19 01:35:40;;;;;;;26.65;10.88;;;8.20;99.90;;;-148.53;100.00;63986.66;5001259;28;20041;-77
2023/02/19 01:38:07;;;;;;;24.73;11.52;;;8.30;99.90;;;-148.53;100.00;63986.66;4997683;28;20079;-77
2023/02/19 01:40:33;;;;;;;26.85;12.40;;;8.30;99.90;;;-148.53;100.00;63986.66;5002200;28;20478;-77
2023/02/19 01:42:59;;;;;;;27.38;12.18;;;8.30;99.90;;;-148.53;100.00;63986.66;4993094;28;20038;-77
2023/02/19 01:45:31;;;;;;;25.40;9.52;;;8.30;99.90;;;-148.53;100.00;63986.66;5009537;28;20040;-78
2023/02/19 01:48:12;;;;;;;16.80;7.82;;;8.30;99.90;;;-148.53;100.00;63986.66;5001420;28;20034;-78
2023/02/19 01:50:51;;;;;;;13.55;6.07;;;8.20;99.90;;;-148.53;100.00;63986.66;5006504;28;20066;-77
2023/02/19 01:53:24;;;;;;;;;;;8.20;99.90;;;-148.53;100.00;63986.66;5004060;28;20100;-78
2023/02/19 01:55:55;;;;;;;10.38;4.50;;;8.10;99.90;;;-148.53;100.00;63986.66;4998478;28;19987;-77
2023/02/19 01:58:24;;;;;;;7.72;3.88;;;8.10;99.90;;;-148.53;100.00;63986.66;5009484;28;20042;-78
2023/02/19 02:00:50;;;;;;;7.65;3.10;;;8.00;99.90;;;-148.53;100.00;63986.66;5003641;28;20038;-78
2023/02/19 02:03:18;;;;;;;5.28;2.63;;;8.00;99.90;;;-148.53;100.00;63986.66;5018799;28;20465;-77
2023/02/19 02:06:14;;;;;;;5.05;2.53;;;8.00;99.90;;;-148.53;100.00;63986.66;5007733;28;20080;-77
2023/02/19 02:11:26;;;;;;;2.33;1.05;;;7.80;99.90;;;-148.53;100.00;63986.66;5005642;28;20057;-77
2023/02/19 02:13:53;;;;;;;2.58;1.27;;;7.80;99.90;;;-148.53;100.00;63986.66;4993921;28;20041;-77
2023/02/19 02:16:51;;;;;;;2.30;1.20;;;7.70;99.90;;;-148.53;100.00;63986.66;4996315;28;20660;-77
2023/02/19 02:19:55;;;;;;;2.53;1.25;;;7.70;99.90;;;-148.53;100.00;63986.66;4999729;28;20038;-77
2023/02/19 02:22:35;;;;;;;2.45;1.17;;;7.70;99.90;;;-148.53;100.00;63986.66;4993263;28;20435;-78
2023/02/19 02:25:26;;;;;;;3.03;1.33;;;7.70;99.90;;;-148.53;100.00;63986.66;5001907;28;20038;-78
2023/02/19 02:28:15;;;;;;;3.70;1.35;;;7.70;99.90;;;-148.53;100.00;63986.66;4999110;28;20065;-77
2023/02/19 02:30:59;;;;;;;6.70;1.80;;;7.70;99.90;;;-148.53;100.00;63986.66;5021701;28;20042;-77
2023/02/19 02:34:12;;;;;;;3.95;1.50;;;7.70;99.90;;;-148.53;100.00;63986.66;5007990;28;20033;-77
2023/02/19 02:36:46;;;;;;;5.35;1.75;;;7.60;99.90;;;-148.53;100.00;63986.66;5004147;28;20137;-77
2023/02/19 02:39:19;;;;;;;4.68;1.77;;;7.60;99.90;;;-148.53;100.00;63986.66;5008504;28;20389;-77
2023/02/19 02:45:33;;;;;;;5.80;2.37;;;7.60;99.90;;;-148.53;100.00;63986.66;4992031;28;20034;-77
2023/02/19 02:47:43;;;;;;;7.43;2.92;;;7.60;99.90;;;-148.53;100.00;63986.66;4999404;28;20074;-77
2023/02/19 02:50:24;;;;;;;6.22;2.85;;;7.60;99.90;;;-148.53;100.00;63986.66;5007755;28;20030;-77
2023/02/19 02:56:05;;;;;;;11.50;4.60;;;7.60;99.90;;;-148.53;100.00;63986.66;5008011;28;20040;-77
2023/02/19 02:58:34;;;;;;;9.88;4.68;;;7.70;99.90;;;-148.53;100.00;63986.66;5008065;28;20459;-77
2023/02/19 03:04:13;;;;;;;11.80;6.13;;;7.80;99.90;;;-148.53;100.00;63986.66;5006560;28;20034;-77
2023/02/19 03:06:42;;;;;;;16.55;6.93;;;7.80;99.90;;;-148.53;100.00;63986.66;5005223;28;20379;-78
2023/02/19 03:09:18;;;;;;;16.83;8.18;;;7.80;99.90;;;-148.53;100.00;63986.66;4999622;28;20035;-77
2023/02/19 03:20:25;;;;;;;26.63;10.30;;;8.10;99.90;;;-148.53;100.00;63986.66;5005894;28;20100;-77
2023/02/19 03:22:55;;;;;;;24.93;11.27;;;8.30;99.90;;;-148.53;100.00;63986.66;4995548;28;20062;-78
2023/02/19 03:28:19;;;;;;;22.13;10.95;;;8.50;99.90;;;-148.53;100.00;63986.66;5005391;28;20481;-76
2023/02/19 03:30:53;;;;;;;7.20;2.50;;;8.50;99.90;;;-148.53;100.00;63986.66;5010004;28;20034;-76
2023/02/19 03:33:27;;;;;;;2.90;1.10;;;7.70;99.90;;;-148.53;100.00;63986.66;5004746;28;20096;-77
2023/02/19 03:36:05;;;;;;;1.98;1.15;;;7.00;99.90;;;-148.53;100.00;63986.66;5003044;28;20040;-76
2023/02/19 03:38:58;;;;;;;1.58;0.90;;;6.70;99.90;;;-148.53;100.00;63986.66;5007279;28;20123;-77
2023/02/19 03:41:44;;;;;;;2.55;1.17;;;6.60;99.90;;;-148.53;100.00;63986.66;5019127;28;20038;-77
2023/02/19 03:44:58;;;;;;;2.00;1.00;;;6.50;99.90;;;-148.53;100.00;63986.66;4995300;28;20152;-77
2023/02/19 03:47:37;;;;;;;2.05;0.98;;;6.40;99.90;;;-148.53;100.00;63986.66;4998610;28;20049;-78
2023/02/19 03:50:24;;;;;;;2.10;0.82;;;6.30;99.90;;;-148.53;100.00;63986.66;4998189;28;20034;-77
2023/02/19 03:53:10;;;;;;;2.53;1.25;;;6.30;99.90;;;-148.53;100.00;63986.66;5020461;28;20640;-77
2023/02/19 03:56:06;;;;;;;1.98;0.98;;;6.20;99.90;;;-148.53;100.00;63986.66;5009616;28;20049;-77
2023/02/19 03:59:10;;;;;;;1.95;1.00;;;6.20;99.90;;;-148.53;100.00;63986.66;5021240;28;20034;-78
2023/02/19 04:01:47;;;;;;;2.08;1.20;;;6.20;99.90;;;-148.53;100.00;63986.66;5009880;28;20161;-77
2023/02/19 04:04:29;;;;;;;2.33;1.02;;;6.20;99.90;;;-148.53;100.00;63986.66;4997239;28;20038;-78
2023/02/19 04:06:57;;;;;;;3.28;1.50;;;6.10;99.90;;;-148.53;100.00;63986.66;5005456;28;20505;-77
2023/02/19 04:09:32;;;;;;;2.78;1.30;;;6.10;99.90;;;-148.53;100.00;63986.66;5013112;28;20062;-77
2023/02/19 04:12:05;;;;;;;5.05;1.52;;;6.10;99.90;;;-148.53;100.00;63986.66;4996219;28;20034;-77
2023/02/19 04:15:00;;;;;;;3.35;1.55;;;6.10;99.90;;;-148.53;100.00;63986.66;5008779;28;20033;-77
2023/02/19 04:17:34;;;;;;;4.65;1.90;;;6.10;99.90;;;-148.53;100.00;63986.66;5005007;28;20485;-77
2023/02/19 04:20:06;;;;;;;2.70;1.50;;;6.10;99.90;;;-148.53;100.00;63986.66;5006325;28;20033;-78
2023/02/19 04:22:35;;;;;;;3.60;1.83;;;6.10;99.90;;;-148.53;100.00;63986.66;5006529;28;20041;-77
2023/02/19 04:25:02;;;;;;;2.85;1.40;;;6.10;99.90;;;-148.53;100.00;63986.66;5005696;28;20123;-78
2023/02/19 04:27:27;;;;;;;2.67;1.08;;;6.10;99.90;;;-148.53;100.00;63986.66;5007779;28;20030;-78
2023/02/19 04:29:53;;;;;;;2.63;1.38;;;6.10;99.90;;;-148.53;100.00;63986.66;5008431;28;20426;-77
2023/02/19 04:32:19;;;;;;;1.88;1.10;;;6.00;99.90;;;-148.53;100.00;63986.66;5012134;28;20079;-78
2023/02/19 04:34:45;;;;;;;4.07;1.52;;;6.00;99.90;;;-148.53;100.00;63986.66;4999030;28;20034;-79
2023/02/19 04:37:10;;;;;;;2.55;1.15;;;6.00;99.90;;;-148.53;100.00;63986.66;5004715;28;20038;-80
2023/02/19 04:39:36;;;;;;;2.58;1.15;;;6.00;99.90;;;-148.53;100.00;63986.66;5001647;28;20371;-78
2023/02/19 04:42:02;;;;;;;1.92;1.08;;;6.00;99.90;;;-148.53;100.00;63986.66;5004309;28;20046;-78
2023/02/19 04:44:28;;;;;;;3.70;1.10;;;5.90;99.90;;;-148.53;100.00;63986.66;5007310;28;20065;-77
2023/02/19 04:46:54;;;;;;;2.05;1.15;;;5.90;99.90;;;-148.53;100.00;63986.66;5012791;28;20072;-78
2023/02/19 04:49:20;;;;;;;2.50;1.33;;;5.80;99.90;;;-148.53;100.00;63986.66;5007348;28;20033;-78
2023/02/19 04:51:45;;;;;;;3.47;1.58;;;5.80;99.90;;;-148.53;100.00;63986.66;5000608;28;20080;-80
2023/02/19 04:54:11;;;;;;;2.90;1.40;;;5.80;99.90;;;-148.53;100.00;63986.66;5009220;28;20037;-78
2023/02/19 04:56:38;;;;;;;2.75;1.40;;;5.80;99.90;;;-148.53;100.00;63986.66;5003475;28;20489;-77
2023/02/19 04:59:04;;;;;;;2.05;1.05;;;5.80;99.90;;;-148.53;100.00;63986.66;5006264;28;20104;-80
2023/02/19 05:01:30;;;;;;;1.75;0.93;;;5.70;99.90;;;-148.53;100.00;63986.66;5011915;28;20117;-78
2023/02/19 05:03:55;;;;;;;2.53;1.13;;;5.70;99.90;;;-148.53;100.00;63986.66;5011103;28;20116;-78
2023/02/19 05:06:21;;;;;;;2.28;1.00;;;5.60;99.90;;;-148.53;100.00;63986.66;5008682;28;20034;-78
2023/02/19 05:08:47;;;;;;;2.90;0.85;;;5.60;99.90;;;-148.53;100.00;63986.66;4998137;28;20030;-78
2023/02/19 05:11:13;;;;;;;2.55;1.15;;;5.50;99.90;;;-148.53;100.00;63986.66;5005663;28;20042;-79
2023/02/19 05:13:39;;;;;;;2.60;1.00;;;5.30;99.90;;;-148.53;100.00;63986.66;5006161;28;20041;-79
2023/02/19 05:16:12;;;;;;;2.33;1.20;;;5.20;99.90;;;-148.53;100.00;63986.66;5007615;28;20038;-78
2023/02/19 05:18:40;;;;;;;3.97;1.50;;;5.10;99.90;;;-148.53;100.00;63986.66;5010290;28;20053;-79
2023/02/19 05:21:05;;;;;;;4.05;1.58;;;5.10;99.90;;;-148.53;100.00;63986.66;5003602;28;20109;-80
2023/02/19 05:23:31;;;;;;;3.83;1.48;;;5.00;99.90;;;-148.53;100.00;63986.66;4996467;28;20113;-78
2023/02/19 05:25:57;;;;;;;4.32;1.70;;;5.00;99.90;;;-148.53;100.00;63986.66;5002741;28;20088;-78
2023/02/19 05:28:27;;;;;;;4.75;1.92;;;4.90;99.90;;;-148.53;100.00;63986.66;5011478;28;20056;-77
2023/02/19 05:30:56;;;;;;;5.00;1.50;;;4.90;99.90;;;-148.53;100.00;63986.66;4998292;28;20104;-78
2023/02/19 05:33:24;;;;;;;3.97;1.60;;;4.90;99.90;;;-148.53;100.00;63986.66;5005931;28;20038;-78
2023/02/19 05:35:53;;;;;;;6.30;3.00;;;4.80;99.90;;;-148.53;100.00;63986.66;4999104;28;20042;-78
2023/02/19 05:38:20;;;;;;;5.60;1.70;;;4.80;99.90;;;-148.53;100.00;63986.66;5007796;28;20430;-79
2023/02/19 05:40:46;;;;;;;6.00;1.80;;;4.80;99.90;;;-148.53;100.00;63986.66;5001923;28;20042;-78
2023/02/19 05:43:13;;;;;;;4.03;1.95;;;4.80;99.90;;;-148.53;100.00;63986.66;5002650;28;20372;-78
2023/02/19 05:45:40;;;;;;;5.93;2.30;;;4.70;99.90;;;-148.53;100.00;63986.66;5001254;28;20049;-78
2023/02/19 05:48:07;;;;;;;5.55;2.03;;;4.70;99.90;;;-148.53;100.00;63986.66;5006695;28;20100;-78
2023/02/19 05:50:35;;;;;;;4.93;2.42;;;4.60;99.90;;;-148.53;100.00;63986.66;5004243;28;20475;-78
2023/02/19 05:53:11;;;;;;;4.47;2.00;;;4.60;99.90;;;-148.53;100.00;63986.66;5011014;28;20076;-78
2023/02/19 05:55:36;;;;;;;5.78;2.40;;;4.60;99.90;;;-148.53;100.00;63986.66;5001725;28;20156;-78
2023/02/19 05:58:03;;;;;;;5.57;2.45;;;4.60;99.90;;;-148.53;100.00;63986.66;4997932;28;20401;-79
2023/02/19 06:00:29;;;;;;;6.75;2.45;;;4.50;99.90;;;-148.53;100.00;63986.66;5003880;28;20033;-79
2023/02/19 06:02:55;;;;;;;5.78;2.38;;;4.50;99.90;;;-148.53;100.00;63986.66;5002451;28;20411;-79
2023/02/19 06:05:21;;;;;;;4.95;2.50;;;4.40;99.90;;;-148.53;100.00;63986.66;5000407;28;20509;-80
2023/02/19 06:07:49;;;;;;;5.68;1.83;;;4.40;99.90;;;-148.53;100.00;63986.66;4994349;28;20066;-78
2023/02/19 06:10:15;;;;;;;6.13;1.80;;;4.40;99.90;;;-148.53;100.00;63986.66;5011474;28;20026;-78
2023/02/19 06:12:41;;;;;;;2.92;1.25;;;4.20;99.90;;;-148.53;100.00;63986.66;5005176;28;20116;-79
2023/02/19 06:15:07;;;;;;;2.80;1.17;;;4.20;99.90;;;-148.53;100.00;63986.66;5005208;28;20036;-78
2023/02/19 06:17:34;;;;;;;6.10;1.20;;;4.10;99.90;;;-148.53;100.00;63986.66;5005385;28;20030;-81
2023/02/19 06:20:00;;;;;;;4.32;1.50;;;4.00;99.90;;;-148.53;100.00;63986.66;5013395;28;20559;-78
2023/02/19 06:22:26;;;;;;;4.22;1.70;;;3.90;99.90;;;-148.53;100.00;63986.66;5008983;28;20026;-78
2023/02/19 06:24:52;;;;;;;3.90;1.50;;;3.90;99.90;;;-148.53;100.00;63986.66;5007847;28;20100;-78
2023/02/19 06:27:18;;;;;;;4.00;1.60;;;3.90;99.90;;;-148.53;100.00;63986.66;4999696;28;20038;-80
2023/02/19 06:29:44;;;;;;;2.22;1.02;;;3.90;99.90;;;-148.53;100.00;63986.66;5003435;28;20080;-79
2023/02/19 06:32:09;;;;;;;3.45;1.15;;;3.80;99.90;;;-148.53;100.00;63986.66;5001273;28;20398;-79
2023/02/19 06:34:36;;;;;;;3.10;1.30;;;3.70;99.90;;;-148.53;100.00;63986.66;5006149;28;20034;-80
2023/02/19 06:37:01;;;;;;;3.05;1.05;;;3.70;99.90;;;-148.53;100.00;63986.66;5005959;28;20038;-78
2023/02/19 06:39:27;;;;;;;3.17;1.08;;;3.60;99.90;;;-148.53;100.00;63986.66;4997989;28;20391;-79
2023/02/19 06:41:57;;;;;;;2.40;1.20;;;3.50;99.90;;;-148.53;100.00;63986.66;5000323;28;20453;-76
2023/02/19 06:44:24;;;;;;;2.20;1.13;;;3.50;99.90;;;-148.53;100.00;63986.66;5009953;28;20030;-78
2023/02/19 06:46:53;;;;;;;2.60;1.20;;;3.50;99.90;;;-148.53;100.00;63986.66;5005057;28;20104;-79
2023/02/19 06:49:18;;;;;;;2.83;1.40;;;3.40;99.90;;;-148.53;100.00;63986.66;5009512;28;20038;-79
2023/02/19 06:51:44;;;;;;;3.03;1.60;;;3.40;99.90;;;-148.53;100.00;63986.66;4994102;28;20042;-79
2023/02/19 06:54:10;;;;;;;3.30;1.80;;;3.40;99.90;;;-148.53;100.00;63986.66;5006194;28;20072;-79
2023/02/19 06:56:40;;;;;;;3.58;1.60;;;3.40;99.90;;;-148.53;100.00;63986.66;5006293;28;20030;-76
2023/02/19 06:59:13;;;;;;;4.13;1.85;;;3.40;99.90;;;-148.53;100.00;63986.66;5002437;28;20038;-78
2023/02/19 07:01:39;;;;;;;3.38;1.77;;;3.40;99.90;;;-148.53;100.00;63986.66;5009060;28;20033;-79
2023/02/19 07:04:06;;;;;;;3.95;2.00;;;3.40;99.90;;;-148.53;100.00;63986.66;5002558;28;20042;-78
2023/02/19 07:06:34;;;;;;;4.00;2.10;;;3.40;99.90;;;-148.53;100.00;63986.66;5004869;28;20040;-79
2023/02/19 07:09:00;;;;;;;4.03;1.92;;;3.30;99.90;;;-148.53;100.00;63986.66;5004012;28;20089;-80
2023/02/19 07:11:30;;;;;;;4.70;2.08;;;3.30;99.90;;;-148.53;100.00;63986.66;4998369;28;20478;-80
2023/02/19 07:13:58;;;;;;;4.07;2.00;;;3.40;99.90;;;-148.53;100.00;63986.66;4999814;28;20113;-79
2023/02/19 07:16:25;;;;;;;4.78;2.03;;;3.40;99.90;;;-148.53;100.00;63986.66;5000942;28;20034;-78
2023/02/19 07:18:52;;;;;;;3.78;1.52;;;3.40;99.90;;;-148.53;100.00;63986.66;5003543;28;20041;-78
2023/02/19 07:21:18;;;;;;;3.47;1.70;;;3.40;99.90;;;-148.53;100.00;63986.66;4998798;28;20026;-79
2023/02/19 07:23:44;;;;;;;2.65;1.42;;;3.40;99.90;;;-148.53;100.00;63986.66;5004225;28;20053;-80
2023/02/19 07:26:13;;;;;;;4.82;1.60;;;3.40;99.90;;;-148.53;100.00;63986.66;5004210;28;20040;-80
2023/02/19 07:28:41;;;;;;;4.45;1.98;;;3.40;99.90;;;-148.53;100.00;63986.66;5021535;28;20502;-79
2023/02/19 07:31:07;;;;;;;5.13;2.35;;;3.40;99.90;;;-148.53;100.00;63986.66;4994896;28;20034;-81
2023/02/19 07:33:33;;;;;;;5.22;2.80;;;3.40;99.90;;;-148.53;100.00;63986.66;5011942;28;20119;-79
2023/02/19 07:35:59;;;;;;;4.97;2.50;;;3.30;99.90;;;-148.53;100.00;63986.66;5001398;28;20437;-82
2023/02/19 07:38:26;;;;;;;6.32;3.10;;;3.40;99.90;;;-148.53;100.00;63986.66;5001211;28;20034;-78
2023/02/19 07:40:54;;;;;;;6.18;3.30;;;3.40;99.90;;;-148.53;100.00;63986.66;5005781;28;20041;-79
2023/02/19 07:43:21;;;;;;;7.55;3.65;;;3.40;99.90;;;-148.53;100.00;63986.66;5018159;28;20423;-79
2023/02/19 07:45:48;;;;;;;7.72;4.10;;;3.30;99.90;;;-148.53;100.00;63986.66;5000761;28;20097;-77
2023/02/19 07:48:14;;;;;;;8.57;4.10;;;3.40;99.90;;;-148.53;100.00;63986.66;5000746;28;20038;-79
2023/02/19 07:50:40;;;;;;;6.90;3.72;;;3.40;99.90;;;-148.53;100.00;63986.66;5005704;28;20048;-78
2023/02/19 07:53:06;;;;;;;6.18;3.47;;;3.50;99.90;;;-148.53;100.00;63986.66;5004583;28;20440;-80
2023/02/19 07:55:33;;;;;;;7.85;4.10;;;3.60;99.90;;;-148.53;100.00;63986.66;5001002;28;20031;-78
2023/02/19 07:57:59;;;;;;;9.43;4.90;;;3.60;99.90;;;-148.53;100.00;63986.66;5003007;28;20117;-79
2023/02/19 08:00:26;;;;;;;7.70;4.30;;;3.70;99.90;;;-148.53;100.00;63986.66;5025273;28;20508;-79
2023/02/19 08:02:59;;;;;;;8.93;4.70;;;3.80;99.90;;;-148.53;100.00;63986.66;5003895;28;20037;-78
2023/02/19 08:05:30;;;;;;;7.97;4.88;;;3.90;99.90;;;-148.53;100.00;63986.66;5000093;28;20038;-79
2023/02/19 08:07:57;;;;;;;9.02;5.22;;;4.00;99.90;;;-148.53;100.00;63986.66;4999458;28;20113;-78
2023/02/19 08:13:18;;;;;;;9.40;4.30;;;4.20;99.90;;;-148.53;100.00;63986.66;5007571;28;20121;-79
2023/02/19 08:15:45;;;;;;;7.57;4.20;;;4.30;99.90;;;-148.53;100.00;63986.66;5008620;28;20046;-78
2023/02/19 08:18:12;;;;;;;7.90;4.97;;;4.40;99.90;;;-148.53;100.00;63986.66;5007239;28;20053;-78
2023/02/19 08:20:39;;;;;;;7.80;4.43;;;4.50;99.90;;;-148.53;100.00;63986.66;5003597;28;20087;-79
2023/02/19 08:23:06;;;;;;;9.25;4.35;;;4.50;99.90;;;-148.53;100.00;63986.66;5017871;28;20044;-79
2023/02/19 08:25:32;;;;;;;9.23;4.10;;;4.50;99.90;;;-148.53;100.00;63986.66;5003381;28;20038;-77
2023/02/19 08:27:59;;;;;;;6.50;3.80;;;4.60;99.90;;;-148.53;100.00;63986.66;5008721;28;20046;-81
2023/02/19 08:30:27;;;;;;;7.35;3.83;;;4.50;99.90;;;-148.53;100.00;63986.66;5012294;28;20030;-78
2023/02/19 08:32:54;;;;;;;8.45;4.45;;;4.50;99.90;;;-148.53;100.00;63986.66;5009428;28;20102;-78
2023/02/19 08:35:20;;;;;;;6.78;3.88;;;4.50;99.90;;;-148.53;100.00;63986.66;5007276;28;20026;-77
2023/02/19 08:37:46;;;;;;;6.95;3.08;;;4.60;99.90;;;-148.53;100.00;63986.66;5004454;28;20091;-77
2023/02/19 08:40:11;;;;;;;6.20;3.28;;;4.70;99.90;;;-148.53;100.00;63986.66;5001825;28;20029;-77
2023/02/19 08:42:38;;;;;;;4.47;2.70;;;4.70;99.90;;;-148.53;100.00;63986.66;5004640;28;20049;-77
2023/02/19 08:45:04;;;;;;;7.18;2.92;;;4.80;99.90;;;-148.53;100.00;63986.66;5005262;28;20030;-77
2023/02/19 08:47:33;;;;;;;7.03;3.60;;;4.80;99.90;;;-148.53;100.00;63986.66;5005548;28;20034;-77
2023/02/19 08:49:58;;;;;;;8.73;4.22;;;5.00;99.90;;;-148.53;100.00;63986.66;5002631;28;20085;-77
2023/02/19 08:52:24;;;;;;;6.47;3.40;;;5.10;99.90;;;-148.53;100.00;63986.66;4992754;28;20501;-77
2023/02/19 08:54:50;;;;;;;5.00;2.78;;;5.20;99.90;;;-148.53;100.00;63986.66;5011281;28;20034;-77
2023/02/19 08:57:15;;;;;;;5.82;2.75;;;5.20;99.90;;;-148.53;100.00;63986.66;5004869;28;20494;-78
2023/02/19 08:59:41;;;;;;;5.85;3.00;;;5.20;99.90;;;-148.53;100.00;63986.66;5013314;28;20038;-77
2023/02/19 09:02:08;;;;;;;7.32;3.80;;;5.20;99.90;;;-148.53;100.00;63986.66;5015961;28;20034;-77
2023/02/19 09:04:36;;;;;;;9.10;3.50;;;5.30;99.90;;;-148.53;100.00;63986.66;5001390;28;20429;-77
2023/02/19 09:07:06;;;;;;;4.70;2.60;;;5.10;99.90;;;-148.53;100.00;63986.66;5005776;28;20033;-79
2023/02/19 09:09:32;;;;;;;6.63;3.38;;;5.20;99.90;;;-148.53;100.00;63986.66;5009457;28;20118;-77
2023/02/19 09:11:58;;;;;;;5.47;3.40;;;5.10;99.90;;;-148.53;100.00;63986.66;5006664;28;20042;-78
2023/02/19 09:14:24;;;;;;;6.25;3.25;;;5.30;99.90;;;-148.53;100.00;63986.66;5006335;28;20044;-79
2023/02/19 09:16:50;;;;;;;6.95;2.33;;;5.50;99.90;;;-148.53;100.00;63986.66;5005056;28;20042;-78
2023/02/19 09:19:15;;;;;;;6.30;3.08;;;5.30;99.90;;;-148.53;100.00;63986.66;5012579;28;20413;-79
2023/02/19 09:21:42;;;;;;;6.53;3.42;;;5.40;99.90;;;-148.53;100.00;63986.66;4993491;28;20037;-79
2023/02/19 09:24:08;;;;;;;11.70;3.97;;;5.40;99.90;;;-148.53;100.00;63986.66;5026469;28;20038;-79
2023/02/19 09:26:34;;;;;;;7.22;3.78;;;5.60;99.90;;;-148.53;100.00;63986.66;5013108;28;20038;-79
2023/02/19 09:29:00;;;;;;;8.68;3.92;;;5.50;99.90;;;-148.53;100.00;63986.66;5009698;28;20045;-79
2023/02/19 09:31:26;;;;;;;9.25;4.10;;;5.50;99.90;;;-148.53;100.00;63986.66;5007470;28;20029;-80
2023/02/19 09:33:51;;;;;;;10.15;4.75;;;5.40;99.90;;;-148.53;100.00;63986.66;5017496;28;20044;-78
2023/02/19 09:36:18;;;;;;;11.05;4.93;;;5.40;99.90;;;-148.53;100.00;63986.66;5007245;28;20429;-78
2023/02/19 09:38:44;;;;;;;13.63;6.82;;;5.70;99.90;;;-148.53;100.00;63986.66;4994837;28;20478;-78
2023/02/19 09:41:45;;;;;;;13.27;6.75;;;5.80;99.90;;;-148.53;100.00;63986.66;5004936;28;20120;-78
2023/02/19 09:44:25;;;;;;;15.40;7.50;;;5.90;99.90;;;-148.53;100.00;63986.66;5024018;28;20030;-80
2023/02/19 09:46:53;;;;;;;15.35;7.32;;;6.10;99.90;;;-148.53;100.00;63986.66;5007015;28;20390;-77
2023/02/19 09:49:27;;;;;;;18.90;8.15;;;6.20;99.90;;;-148.53;100.00;63986.66;4993584;28;20046;-78
2023/02/19 09:52:46;;;;;;;15.85;8.10;;;6.30;99.90;;;-148.53;100.00;63986.66;5009819;28;20034;-79
2023/02/19 09:55:35;;;;;;;16.70;7.20;;;6.50;99.90;;;-148.53;100.00;63986.66;4987702;28;20085;-79
2023/02/19 09:58:15;;;;;;;13.65;6.10;;;6.30;99.90;;;-148.53;100.00;63986.66;5001488;28;20046;-79
2023/02/19 10:00:41;;;;;;;13.82;6.28;;;6.00;99.90;;;-148.53;100.00;63986.66;5007018;28;20100;-78
2023/02/19 10:03:24;;;;;;;12.27;5.93;;;5.80;99.90;;;-148.53;100.00;63986.66;5005273;28;20042;-79
2023/02/19 10:05:52;;;;;;;16.58;7.68;;;5.90;99.90;;;-148.53;100.00;63986.66;5008472;28;20026;-79
2023/02/19 10:08:20;;;;;;;15.30;6.20;;;6.60;99.90;;;-148.53;100.00;63986.66;5000852;28;20092;-78
2023/02/19 10:10:46;;;;;;;15.05;7.38;;;7.00;99.90;;;-148.53;100.00;63986.66;5011311;28;20034;-78
2023/02/19 10:13:30;;;;;;;13.50;5.97;;;7.40;99.90;;;-148.53;100.00;63986.66;4993953;28;20049;-77
2023/02/19 10:16:00;;;;;;;10.75;5.15;;;8.00;99.90;;;-148.53;100.00;63986.66;5019093;28;20121;-77
2023/02/19 10:18:35;;;;;;;9.15;4.35;;;7.70;99.90;;;-148.53;100.00;63986.66;5007167;28;20393;-76
2023/02/19 10:21:01;;;;;;;8.77;4.40;;;7.40;99.90;;;-148.53;100.00;63986.66;4998887;28;20413;-78
2023/02/19 10:23:27;;;;;;;10.52;4.90;;;7.10;99.90;;;-148.53;100.00;63986.66;5008586;28;20052;-78
2023/02/19 10:25:56;;;;;;;10.38;4.88;;;6.90;99.90;;;-148.53;100.00;63986.66;5000459;28;20518;-77
2023/02/19 10:28:32;;;;;;;10.10;4.15;;;7.30;99.90;;;-148.53;100.00;63986.66;5004686;28;20375;-78
2023/02/19 10:31:02;;;;;;;8.30;4.45;;;8.00;99.90;;;-148.53;100.00;63986.66;4999497;28;20389;-79
2023/02/19 10:33:28;;;;;;;11.25;3.72;;;7.60;99.90;;;-148.53;100.00;63986.66;5005424;28;20037;-79
2023/02/19 10:36:04;;;;;;;8.35;3.47;;;7.30;99.90;;;-148.53;100.00;63986.66;5005600;28;20450;-79
2023/02/19 10:38:46;;;;;;;5.60;2.10;;;7.80;99.90;;;-148.53;100.00;63986.66;5004032;28;20030;-82
2023/02/19 10:41:21;;;;;;;6.38;2.30;;;7.00;99.90;;;-148.53;100.00;63986.66;4998871;28;20038;-79
2023/02/19 10:43:55;;;;;;;5.25;2.42;;;6.60;99.90;;;-148.53;100.00;63986.66;5009372;28;20049;-82
2023/02/19 10:46:26;;;;;;;6.55;3.20;;;7.00;99.90;;;-148.53;100.00;63986.66;5004482;28;20046;-80